sensor_id;sensor_type;location;lat;lon;timestamp;P1;durP1;ratioP1;P2;durP2;ratioP2
36185;SDS011;22228;53.222;7.446;2024-02-21T00:01:47;30.97;;;16.57;;
36185;SDS011;22228;53.222;7.446;2024-02-21T00:05:08;28.60;;;17.70;;
36185;SDS011;22228;53.222;7.446;2024-02-21T00:08:29;25.37;;;15.67;;
36185;SDS011;22228;53.222;7.446;2024-02-21T00:11:50;27.03;;;15.13;;
36185;SDS011;22228;53.222;7.446;2024-02-21T00:15:11;21.70;;;15.77;;
36185;SDS011;22228;53.222;7.446;2024-02-21T00:18:31;25.33;;;15.40;;
36185;SDS011;22228;53.222;7.446;2024-02-21T00:21:52;25.47;;;14.67;;
36185;SDS011;22228;53.222;7.446;2024-02-21T00:25:12;17.50;;;13.77;;
36185;SDS011;22228;53.222;7.446;2024-02-21T00:28:34;21.37;;;13.03;;
36185;SDS011;22228;53.222;7.446;2024-02-21T00:31:55;24.40;;;14.27;;
36185;SDS011;22228;53.222;7.446;2024-02-21T00:35:15;20.67;;;12.93;;
36185;SDS011;22228;53.222;7.446;2024-02-21T00:38:36;21.30;;;12.47;;
36185;SDS011;22228;53.222;7.446;2024-02-21T00:41:56;20.07;;;11.23;;
36185;SDS011;22228;53.222;7.446;2024-02-21T00:45:18;18.53;;;10.30;;
36185;SDS011;22228;53.222;7.446;2024-02-21T00:48:38;18.13;;;9.77;;
36185;SDS011;22228;53.222;7.446;2024-02-21T00:51:59;17.17;;;10.40;;
36185;SDS011;22228;53.222;7.446;2024-02-21T00:55:19;15.87;;;9.97;;
36185;SDS011;22228;53.222;7.446;2024-02-21T00:58:40;18.90;;;11.50;;
36185;SDS011;22228;53.222;7.446;2024-02-21T01:02:01;16.77;;;10.20;;
36185;SDS011;22228;53.222;7.446;2024-02-21T01:05:22;26.07;;;13.77;;
36185;SDS011;22228;53.222;7.446;2024-02-21T01:08:42;26.50;;;14.43;;
36185;SDS011;22228;53.222;7.446;2024-02-21T01:12:03;23.43;;;15.77;;
36185;SDS011;22228;53.222;7.446;2024-02-21T04:02:26;17.13;;;10.80;;
36185;SDS011;22228;53.222;7.446;2024-02-21T04:05:46;15.70;;;10.37;;
36185;SDS011;22228;53.222;7.446;2024-02-21T04:09:07;19.13;;;11.17;;
36185;SDS011;22228;53.222;7.446;2024-02-21T04:12:27;18.70;;;11.37;;
36185;SDS011;22228;53.222;7.446;2024-02-21T04:15:48;18.67;;;11.93;;
36185;SDS011;22228;53.222;7.446;2024-02-21T04:19:10;19.30;;;12.00;;
36185;SDS011;22228;53.222;7.446;2024-02-21T04:22:30;15.87;;;11.70;;
36185;SDS011;22228;53.222;7.446;2024-02-21T04:25:51;18.27;;;12.20;;
36185;SDS011;22228;53.222;7.446;2024-02-21T04:29:12;19.77;;;11.97;;
36185;SDS011;22228;53.222;7.446;2024-02-21T04:32:32;23.13;;;12.47;;
36185;SDS011;22228;53.222;7.446;2024-02-21T04:35:54;20.00;;;12.83;;
36185;SDS011;22228;53.222;7.446;2024-02-21T04:39:15;17.40;;;10.87;;
36185;SDS011;22228;53.222;7.446;2024-02-21T04:42:35;21.83;;;12.47;;
36185;SDS011;22228;53.222;7.446;2024-02-21T04:45:55;23.83;;;13.20;;
36185;SDS011;22228;53.222;7.446;2024-02-21T04:49:16;24.50;;;13.10;;
36185;SDS011;22228;53.222;7.446;2024-02-21T04:52:38;23.63;;;12.70;;
36185;SDS011;22228;53.222;7.446;2024-02-21T04:55:58;26.13;;;13.57;;
36185;SDS011;22228;53.222;7.446;2024-02-21T04:59:19;23.50;;;13.50;;
36185;SDS011;22228;53.222;7.446;2024-02-21T05:02:39;22.10;;;14.30;;
36185;SDS011;22228;53.222;7.446;2024-02-21T05:06:00;27.30;;;13.07;;
36185;SDS011;22228;53.222;7.446;2024-02-21T05:09:22;23.73;;;13.70;;
36185;SDS011;22228;53.222;7.446;2024-02-21T05:12:42;20.57;;;12.47;;
36185;SDS011;22228;53.222;7.446;2024-02-21T05:16:03;23.77;;;13.27;;
36185;SDS011;22228;53.222;7.446;2024-02-21T05:19:24;24.77;;;12.60;;
36185;SDS011;22228;53.222;7.446;2024-02-21T05:22:45;26.77;;;14.43;;
36185;SDS011;22228;53.222;7.446;2024-02-21T05:26:07;20.30;;;11.80;;
36185;SDS011;22228;53.222;7.446;2024-02-21T05:29:27;24.07;;;13.53;;
36185;SDS011;22228;53.222;7.446;2024-02-21T05:32:47;25.13;;;12.97;;
36185;SDS011;22228;53.222;7.446;2024-02-21T05:36:08;28.93;;;13.83;;
36185;SDS011;22228;53.222;7.446;2024-02-21T05:39:28;29.47;;;13.20;;
36185;SDS011;22228;53.222;7.446;2024-02-21T05:42:50;23.13;;;13.53;;
36185;SDS011;22228;53.222;7.446;2024-02-21T05:46:10;27.50;;;14.43;;
36185;SDS011;22228;53.222;7.446;2024-02-21T05:49:31;25.20;;;15.63;;
36185;SDS011;22228;53.222;7.446;2024-02-21T05:52:52;27.50;;;14.57;;
36185;SDS011;22228;53.222;7.446;2024-02-21T05:56:12;31.33;;;17.03;;
36185;SDS011;22228;53.222;7.446;2024-02-21T05:59:35;23.33;;;15.03;;
36185;SDS011;22228;53.222;7.446;2024-02-21T06:02:59;28.87;;;15.17;;
36185;SDS011;22228;53.222;7.446;2024-02-21T06:06:19;27.27;;;16.20;;
36185;SDS011;22228;53.222;7.446;2024-02-21T06:09:40;27.70;;;14.53;;
36185;SDS011;22228;53.222;7.446;2024-02-21T06:13:00;26.40;;;14.40;;
36185;SDS011;22228;53.222;7.446;2024-02-21T06:16:22;25.33;;;13.57;;
36185;SDS011;22228;53.222;7.446;2024-02-21T06:19:43;22.23;;;13.70;;
36185;SDS011;22228;53.222;7.446;2024-02-21T06:23:04;26.63;;;13.60;;
36185;SDS011;22228;53.222;7.446;2024-02-21T06:26:24;23.47;;;14.93;;
36185;SDS011;22228;53.222;7.446;2024-02-21T06:29:45;25.53;;;15.73;;
36185;SDS011;22228;53.222;7.446;2024-02-21T06:33:06;21.07;;;14.23;;
36185;SDS011;22228;53.222;7.446;2024-02-21T06:36:27;24.30;;;14.40;;
36185;SDS011;22228;53.222;7.446;2024-02-21T06:39:47;25.90;;;14.83;;
36185;SDS011;22228;53.222;7.446;2024-02-21T06:43:08;24.07;;;14.90;;
36185;SDS011;22228;53.222;7.446;2024-02-21T06:46:28;29.80;;;15.60;;
36185;SDS011;22228;53.222;7.446;2024-02-21T06:49:51;33.33;;;15.87;;
36185;SDS011;22228;53.222;7.446;2024-02-21T06:53:12;33.23;;;16.00;;
36185;SDS011;22228;53.222;7.446;2024-02-21T06:56:32;27.60;;;15.40;;
36185;SDS011;22228;53.222;7.446;2024-02-21T06:59:53;29.40;;;16.17;;
36185;SDS011;22228;53.222;7.446;2024-02-21T07:03:13;28.70;;;17.07;;
36185;SDS011;22228;53.222;7.446;2024-02-21T07:06:35;36.27;;;17.20;;
36185;SDS011;22228;53.222;7.446;2024-02-21T07:09:55;31.67;;;17.33;;
36185;SDS011;22228;53.222;7.446;2024-02-21T07:13:16;35.23;;;17.13;;
36185;SDS011;22228;53.222;7.446;2024-02-21T07:16:36;30.97;;;17.70;;
36185;SDS011;22228;53.222;7.446;2024-02-21T07:19:57;33.87;;;16.90;;
36185;SDS011;22228;53.222;7.446;2024-02-21T07:23:19;29.77;;;16.27;;
36185;SDS011;22228;53.222;7.446;2024-02-21T07:26:40;35.27;;;16.90;;
36185;SDS011;22228;53.222;7.446;2024-02-21T07:30:01;28.93;;;16.03;;
36185;SDS011;22228;53.222;7.446;2024-02-21T07:33:21;23.87;;;14.90;;
36185;SDS011;22228;53.222;7.446;2024-02-21T07:36:42;26.50;;;14.80;;
36185;SDS011;22228;53.222;7.446;2024-02-21T07:40:05;32.43;;;16.03;;
36185;SDS011;22228;53.222;7.446;2024-02-21T07:43:26;32.20;;;16.80;;
36185;SDS011;22228;53.222;7.446;2024-02-21T07:46:47;27.87;;;15.83;;
36185;SDS011;22228;53.222;7.446;2024-02-21T07:50:07;30.27;;;17.23;;
36185;SDS011;22228;53.222;7.446;2024-02-21T07:53:28;28.87;;;16.80;;
36185;SDS011;22228;53.222;7.446;2024-02-21T07:56:50;31.43;;;16.33;;
36185;SDS011;22228;53.222;7.446;2024-02-21T08:00:10;29.60;;;16.20;;
36185;SDS011;22228;53.222;7.446;2024-02-21T08:03:38;35.90;;;17.50;;
36185;SDS011;22228;53.222;7.446;2024-02-21T08:06:58;33.80;;;18.57;;
36185;SDS011;22228;53.222;7.446;2024-02-21T08:10:21;32.97;;;18.10;;
36185;SDS011;22228;53.222;7.446;2024-02-21T08:13:43;35.93;;;19.70;;
36185;SDS011;22228;53.222;7.446;2024-02-21T08:17:03;40.57;;;20.53;;
36185;SDS011;22228;53.222;7.446;2024-02-21T08:20:24;41.60;;;20.30;;
36185;SDS011;22228;53.222;7.446;2024-02-21T08:23:44;37.23;;;19.53;;
36185;SDS011;22228;53.222;7.446;2024-02-21T08:27:05;40.87;;;20.40;;
36185;SDS011;22228;53.222;7.446;2024-02-21T08:30:26;35.17;;;20.20;;
36185;SDS011;22228;53.222;7.446;2024-02-21T08:33:47;42.80;;;20.90;;
36185;SDS011;22228;53.222;7.446;2024-02-21T08:37:07;34.33;;;20.17;;
36185;SDS011;22228;53.222;7.446;2024-02-21T08:40:29;36.67;;;20.27;;
36185;SDS011;22228;53.222;7.446;2024-02-21T08:43:50;33.73;;;20.70;;
36185;SDS011;22228;53.222;7.446;2024-02-21T08:47:12;32.07;;;19.03;;
36185;SDS011;22228;53.222;7.446;2024-02-21T08:50:32;36.23;;;21.40;;
36185;SDS011;22228;53.222;7.446;2024-02-21T08:53:53;36.63;;;19.13;;
36185;SDS011;22228;53.222;7.446;2024-02-21T08:57:13;40.50;;;19.80;;
36185;SDS011;22228;53.222;7.446;2024-02-21T09:00:34;33.00;;;19.97;;
36185;SDS011;22228;53.222;7.446;2024-02-21T09:03:56;32.37;;;20.33;;
36185;SDS011;22228;53.222;7.446;2024-02-21T09:07:17;30.90;;;19.33;;
36185;SDS011;22228;53.222;7.446;2024-02-21T09:10:37;39.17;;;20.20;;
36185;SDS011;22228;53.222;7.446;2024-02-21T09:13:58;32.37;;;19.60;;
36185;SDS011;22228;53.222;7.446;2024-02-21T09:17:19;30.37;;;19.10;;
36185;SDS011;22228;53.222;7.446;2024-02-21T09:20:41;34.17;;;19.50;;
36185;SDS011;22228;53.222;7.446;2024-02-21T09:24:01;44.83;;;23.53;;
36185;SDS011;22228;53.222;7.446;2024-02-21T09:27:22;30.77;;;22.13;;
36185;SDS011;22228;53.222;7.446;2024-02-21T09:30:42;37.83;;;23.50;;
36185;SDS011;22228;53.222;7.446;2024-02-21T09:34:03;34.67;;;23.47;;
36185;SDS011;22228;53.222;7.446;2024-02-21T09:37:25;38.80;;;24.87;;
36185;SDS011;22228;53.222;7.446;2024-02-21T09:40:45;41.60;;;25.47;;
36185;SDS011;22228;53.222;7.446;2024-02-21T09:44:06;38.67;;;26.93;;
36185;SDS011;22228;53.222;7.446;2024-02-21T09:47:31;38.17;;;26.47;;
36185;SDS011;22228;53.222;7.446;2024-02-21T09:50:59;41.53;;;26.27;;
36185;SDS011;22228;53.222;7.446;2024-02-21T09:54:23;38.60;;;26.90;;
36185;SDS011;22228;53.222;7.446;2024-02-21T09:57:43;42.57;;;27.73;;
36185;SDS011;22228;53.222;7.446;2024-02-21T10:01:04;33.80;;;24.50;;
36185;SDS011;22228;53.222;7.446;2024-02-21T10:04:25;37.30;;;26.03;;
36185;SDS011;22228;53.222;7.446;2024-02-21T10:07:46;37.67;;;26.37;;
36185;SDS011;22228;53.222;7.446;2024-02-21T10:11:09;39.90;;;26.33;;
36185;SDS011;22228;53.222;7.446;2024-02-21T10:14:30;38.10;;;25.93;;
36185;SDS011;22228;53.222;7.446;2024-02-21T10:17:57;34.80;;;25.80;;
36185;SDS011;22228;53.222;7.446;2024-02-21T10:21:19;39.93;;;25.63;;
36185;SDS011;22228;53.222;7.446;2024-02-21T10:24:40;36.37;;;25.07;;
36185;SDS011;22228;53.222;7.446;2024-02-21T10:28:03;30.30;;;23.73;;
36185;SDS011;22228;53.222;7.446;2024-02-21T10:31:24;32.23;;;23.70;;
36185;SDS011;22228;53.222;7.446;2024-02-21T10:34:45;34.20;;;24.50;;
36185;SDS011;22228;53.222;7.446;2024-02-21T10:38:10;39.13;;;25.07;;
36185;SDS011;22228;53.222;7.446;2024-02-21T10:41:31;33.00;;;22.50;;
36185;SDS011;22228;53.222;7.446;2024-02-21T10:44:53;34.80;;;23.90;;
36185;SDS011;22228;53.222;7.446;2024-02-21T10:48:19;31.07;;;23.03;;
36185;SDS011;22228;53.222;7.446;2024-02-21T10:51:48;33.53;;;21.67;;
36185;SDS011;22228;53.222;7.446;2024-02-21T10:55:19;30.07;;;20.93;;
36185;SDS011;22228;53.222;7.446;2024-02-21T10:58:45;30.90;;;20.57;;
36185;SDS011;22228;53.222;7.446;2024-02-21T11:02:07;30.87;;;19.53;;
36185;SDS011;22228;53.222;7.446;2024-02-21T11:05:28;25.17;;;18.67;;
36185;SDS011;22228;53.222;7.446;2024-02-21T11:08:59;24.60;;;18.00;;
36185;SDS011;22228;53.222;7.446;2024-02-21T11:12:21;23.07;;;17.83;;
36185;SDS011;22228;53.222;7.446;2024-02-21T11:15:42;24.70;;;16.13;;
36185;SDS011;22228;53.222;7.446;2024-02-21T11:19:05;26.27;;;16.10;;
36185;SDS011;22228;53.222;7.446;2024-02-21T11:22:26;22.10;;;15.33;;
36185;SDS011;22228;53.222;7.446;2024-02-21T11:25:49;20.60;;;14.93;;
36185;SDS011;22228;53.222;7.446;2024-02-21T11:29:10;27.37;;;15.27;;
36185;SDS011;22228;53.222;7.446;2024-02-21T11:32:30;23.93;;;15.77;;
36185;SDS011;22228;53.222;7.446;2024-02-21T11:35:52;20.23;;;15.30;;
36185;SDS011;22228;53.222;7.446;2024-02-21T11:39:12;19.97;;;14.80;;
36185;SDS011;22228;53.222;7.446;2024-02-21T11:42:37;17.87;;;13.57;;
36185;SDS011;22228;53.222;7.446;2024-02-21T11:45:59;18.47;;;13.53;;
36185;SDS011;22228;53.222;7.446;2024-02-21T11:49:21;18.83;;;12.47;;
36185;SDS011;22228;53.222;7.446;2024-02-21T11:52:43;19.37;;;12.70;;
36185;SDS011;22228;53.222;7.446;2024-02-21T11:56:04;14.70;;;12.50;;
36185;SDS011;22228;53.222;7.446;2024-02-21T12:02:49;12.00;;;10.92;;
36185;SDS011;22228;53.222;7.446;2024-02-21T12:06:11;14.03;;;10.80;;
36185;SDS011;22228;53.222;7.446;2024-02-21T12:09:34;19.23;;;11.33;;
36185;SDS011;22228;53.222;7.446;2024-02-21T12:13:04;13.37;;;10.80;;
36185;SDS011;22228;53.222;7.446;2024-02-21T12:16:27;14.80;;;11.60;;
36185;SDS011;22228;53.222;7.446;2024-02-21T12:19:48;18.70;;;11.17;;
36185;SDS011;22228;53.222;7.446;2024-02-21T12:23:10;14.50;;;10.23;;
36185;SDS011;22228;53.222;7.446;2024-02-21T12:26:32;13.73;;;10.07;;
36185;SDS011;22228;53.222;7.446;2024-02-21T12:29:53;17.00;;;10.27;;
36185;SDS011;22228;53.222;7.446;2024-02-21T12:33:14;12.10;;;9.90;;
36185;SDS011;22228;53.222;7.446;2024-02-21T12:36:35;15.57;;;10.03;;
36185;SDS011;22228;53.222;7.446;2024-02-21T12:40:00;12.47;;;9.40;;
36185;SDS011;22228;53.222;7.446;2024-02-21T12:43:24;15.30;;;9.27;;
36185;SDS011;22228;53.222;7.446;2024-02-21T12:46:45;13.90;;;9.67;;
36185;SDS011;22228;53.222;7.446;2024-02-21T12:50:11;12.63;;;8.93;;
36185;SDS011;22228;53.222;7.446;2024-02-21T12:53:34;13.10;;;8.70;;
36185;SDS011;22228;53.222;7.446;2024-02-21T12:56:54;10.73;;;8.07;;
36185;SDS011;22228;53.222;7.446;2024-02-21T13:00:17;10.00;;;7.90;;
36185;SDS011;22228;53.222;7.446;2024-02-21T13:03:39;8.40;;;7.53;;
36185;SDS011;22228;53.222;7.446;2024-02-21T13:07:00;9.90;;;7.80;;
36185;SDS011;22228;53.222;7.446;2024-02-21T13:10:21;8.83;;;7.20;;
36185;SDS011;22228;53.222;7.446;2024-02-21T13:13:45;8.33;;;7.43;;
36185;SDS011;22228;53.222;7.446;2024-02-21T13:17:14;9.47;;;6.67;;
36185;SDS011;22228;53.222;7.446;2024-02-21T13:20:35;8.23;;;7.40;;
36185;SDS011;22228;53.222;7.446;2024-02-21T13:23:56;8.10;;;6.67;;
36185;SDS011;22228;53.222;7.446;2024-02-21T13:27:17;7.60;;;6.90;;
36185;SDS011;22228;53.222;7.446;2024-02-21T13:30:41;7.77;;;6.67;;
36185;SDS011;22228;53.222;7.446;2024-02-21T13:34:03;8.27;;;6.93;;
36185;SDS011;22228;53.222;7.446;2024-02-21T13:37:24;9.10;;;5.90;;
36185;SDS011;22228;53.222;7.446;2024-02-21T13:40:45;7.73;;;6.60;;
36185;SDS011;22228;53.222;7.446;2024-02-21T13:44:06;7.13;;;6.23;;
36185;SDS011;22228;53.222;7.446;2024-02-21T13:47:28;6.80;;;5.47;;
36185;SDS011;22228;53.222;7.446;2024-02-21T13:50:50;8.83;;;5.77;;
36185;SDS011;22228;53.222;7.446;2024-02-21T13:54:11;6.90;;;4.63;;
36185;SDS011;22228;53.222;7.446;2024-02-21T13:57:35;5.90;;;4.87;;
36185;SDS011;22228;53.222;7.446;2024-02-21T14:00:56;9.53;;;5.30;;
36185;SDS011;22228;53.222;7.446;2024-02-21T14:04:16;7.10;;;4.13;;
36185;SDS011;22228;53.222;7.446;2024-02-21T14:07:39;5.10;;;4.53;;
36185;SDS011;22228;53.222;7.446;2024-02-21T14:10:59;4.37;;;3.90;;
36185;SDS011;22228;53.222;7.446;2024-02-21T14:14:20;6.17;;;4.00;;
36185;SDS011;22228;53.222;7.446;2024-02-21T14:17:40;5.07;;;3.67;;
36185;SDS011;22228;53.222;7.446;2024-02-21T14:21:01;4.10;;;3.80;;
36185;SDS011;22228;53.222;7.446;2024-02-21T14:24:23;5.80;;;3.63;;
36185;SDS011;22228;53.222;7.446;2024-02-21T14:27:43;5.40;;;3.90;;
36185;SDS011;22228;53.222;7.446;2024-02-21T14:31:04;5.30;;;3.20;;
36185;SDS011;22228;53.222;7.446;2024-02-21T14:34:27;4.13;;;3.70;;
36185;SDS011;22228;53.222;7.446;2024-02-21T14:37:48;4.07;;;3.63;;
36185;SDS011;22228;53.222;7.446;2024-02-21T14:41:10;3.10;;;2.90;;
36185;SDS011;22228;53.222;7.446;2024-02-21T14:44:31;4.23;;;3.80;;
36185;SDS011;22228;53.222;7.446;2024-02-21T14:47:52;4.43;;;4.03;;
36185;SDS011;22228;53.222;7.446;2024-02-21T14:51:14;4.90;;;4.30;;
36185;SDS011;22228;53.222;7.446;2024-02-21T14:54:35;6.27;;;4.90;;
36185;SDS011;22228;53.222;7.446;2024-02-21T14:57:58;6.10;;;4.83;;
36185;SDS011;22228;53.222;7.446;2024-02-21T15:01:19;5.53;;;4.87;;
36185;SDS011;22228;53.222;7.446;2024-02-21T15:04:40;6.07;;;4.43;;
36185;SDS011;22228;53.222;7.446;2024-02-21T15:08:08;6.93;;;4.80;;
36185;SDS011;22228;53.222;7.446;2024-02-21T15:11:29;7.57;;;4.90;;
36185;SDS011;22228;53.222;7.446;2024-02-21T15:14:53;5.53;;;4.70;;
36185;SDS011;22228;53.222;7.446;2024-02-21T15:18:14;5.20;;;4.73;;
36185;SDS011;22228;53.222;7.446;2024-02-21T15:21:35;5.23;;;4.70;;
36185;SDS011;22228;53.222;7.446;2024-02-21T15:24:56;5.77;;;4.87;;
36185;SDS011;22228;53.222;7.446;2024-02-21T15:28:24;6.77;;;4.70;;
36185;SDS011;22228;53.222;7.446;2024-02-21T15:31:58;6.43;;;5.10;;
36185;SDS011;22228;53.222;7.446;2024-02-21T15:35:19;5.53;;;4.37;;
36185;SDS011;22228;53.222;7.446;2024-02-21T15:38:39;7.07;;;4.90;;
36185;SDS011;22228;53.222;7.446;2024-02-21T15:42:01;7.00;;;4.60;;
36185;SDS011;22228;53.222;7.446;2024-02-21T15:45:21;6.23;;;4.63;;
36185;SDS011;22228;53.222;7.446;2024-02-21T15:48:50;7.87;;;4.70;;
36185;SDS011;22228;53.222;7.446;2024-02-21T15:52:12;8.53;;;4.37;;
36185;SDS011;22228;53.222;7.446;2024-02-21T15:55:33;10.63;;;5.10;;
36185;SDS011;22228;53.222;7.446;2024-02-21T15:58:55;7.17;;;4.70;;
36185;SDS011;22228;53.222;7.446;2024-02-21T16:02:18;7.27;;;5.03;;
36185;SDS011;22228;53.222;7.446;2024-02-21T16:05:40;6.83;;;4.97;;
36185;SDS011;22228;53.222;7.446;2024-02-21T16:09:01;7.93;;;4.43;;
36185;SDS011;22228;53.222;7.446;2024-02-21T16:12:24;7.93;;;4.90;;
36185;SDS011;22228;53.222;7.446;2024-02-21T16:15:45;7.97;;;4.83;;
36185;SDS011;22228;53.222;7.446;2024-02-21T16:19:07;5.93;;;4.43;;
36185;SDS011;22228;53.222;7.446;2024-02-21T16:22:30;7.63;;;5.70;;
36185;SDS011;22228;53.222;7.446;2024-02-21T16:25:50;6.07;;;4.80;;
36185;SDS011;22228;53.222;7.446;2024-02-21T16:29:11;10.13;;;5.80;;
36185;SDS011;22228;53.222;7.446;2024-02-21T16:32:32;7.80;;;5.27;;
36185;SDS011;22228;53.222;7.446;2024-02-21T16:35:57;8.40;;;5.70;;
36185;SDS011;22228;53.222;7.446;2024-02-21T16:39:20;6.97;;;6.00;;
36185;SDS011;22228;53.222;7.446;2024-02-21T16:42:50;8.00;;;6.63;;
36185;SDS011;22228;53.222;7.446;2024-02-21T16:46:11;8.93;;;6.30;;
36185;SDS011;22228;53.222;7.446;2024-02-21T16:49:38;10.03;;;6.43;;
36185;SDS011;22228;53.222;7.446;2024-02-21T16:52:58;11.07;;;7.27;;
36185;SDS011;22228;53.222;7.446;2024-02-21T16:56:23;9.57;;;6.93;;
36185;SDS011;22228;53.222;7.446;2024-02-21T16:59:44;13.13;;;7.33;;
36185;SDS011;22228;53.222;7.446;2024-02-21T17:03:08;12.87;;;6.87;;
36185;SDS011;22228;53.222;7.446;2024-02-21T17:06:29;10.70;;;7.93;;
36185;SDS011;22228;53.222;7.446;2024-02-21T17:09:50;9.27;;;7.33;;
36185;SDS011;22228;53.222;7.446;2024-02-21T17:13:12;10.87;;;7.20;;
36185;SDS011;22228;53.222;7.446;2024-02-21T17:16:33;9.80;;;7.00;;
36185;SDS011;22228;53.222;7.446;2024-02-21T17:19:53;9.87;;;7.47;;
36185;SDS011;22228;53.222;7.446;2024-02-21T17:23:14;8.03;;;7.10;;
36185;SDS011;22228;53.222;7.446;2024-02-21T17:26:35;9.83;;;7.83;;
36185;SDS011;22228;53.222;7.446;2024-02-21T17:30:00;15.30;;;8.67;;
36185;SDS011;22228;53.222;7.446;2024-02-21T17:33:23;12.90;;;8.90;;
36185;SDS011;22228;53.222;7.446;2024-02-21T17:36:44;11.83;;;7.53;;
36185;SDS011;22228;53.222;7.446;2024-02-21T17:40:09;10.67;;;7.87;;
36185;SDS011;22228;53.222;7.446;2024-02-21T17:43:35;13.10;;;8.20;;
36185;SDS011;22228;53.222;7.446;2024-02-21T17:46:58;9.17;;;7.87;;
36185;SDS011;22228;53.222;7.446;2024-02-21T17:50:19;12.00;;;7.90;;
36185;SDS011;22228;53.222;7.446;2024-02-21T17:53:40;12.00;;;8.30;;
36185;SDS011;22228;53.222;7.446;2024-02-21T17:57:01;15.50;;;8.10;;
36185;SDS011;22228;53.222;7.446;2024-02-21T18:00:22;10.90;;;9.23;;
36185;SDS011;22228;53.222;7.446;2024-02-21T18:03:44;15.53;;;9.30;;
36185;SDS011;22228;53.222;7.446;2024-02-21T18:07:05;16.27;;;8.87;;
36185;SDS011;22228;53.222;7.446;2024-02-21T18:10:25;13.77;;;8.90;;
36185;SDS011;22228;53.222;7.446;2024-02-21T18:13:51;12.83;;;8.60;;
36185;SDS011;22228;53.222;7.446;2024-02-21T18:17:13;9.50;;;8.50;;
36185;SDS011;22228;53.222;7.446;2024-02-21T18:20:56;11.47;;;8.57;;
36185;SDS011;22228;53.222;7.446;2024-02-21T18:24:17;15.53;;;9.73;;
36185;SDS011;22228;53.222;7.446;2024-02-21T18:27:37;13.37;;;9.30;;
36185;SDS011;22228;53.222;7.446;2024-02-21T18:30:58;13.27;;;9.80;;
36185;SDS011;22228;53.222;7.446;2024-02-21T18:34:19;14.33;;;9.43;;
36185;SDS011;22228;53.222;7.446;2024-02-21T18:37:43;13.30;;;9.07;;
36185;SDS011;22228;53.222;7.446;2024-02-21T18:41:05;15.93;;;9.40;;
36185;SDS011;22228;53.222;7.446;2024-02-21T18:44:28;13.13;;;8.93;;
36185;SDS011;22228;53.222;7.446;2024-02-21T18:47:49;16.07;;;9.07;;
36185;SDS011;22228;53.222;7.446;2024-02-21T18:51:10;13.53;;;9.50;;
36185;SDS011;22228;53.222;7.446;2024-02-21T18:54:38;12.20;;;8.53;;
36185;SDS011;22228;53.222;7.446;2024-02-21T18:57:59;14.20;;;8.87;;
36185;SDS011;22228;53.222;7.446;2024-02-21T19:01:26;14.37;;;8.87;;
36185;SDS011;22228;53.222;7.446;2024-02-21T19:04:56;15.67;;;9.47;;
36185;SDS011;22228;53.222;7.446;2024-02-21T19:08:21;15.20;;;8.67;;
36185;SDS011;22228;53.222;7.446;2024-02-21T19:11:45;15.70;;;9.33;;
36185;SDS011;22228;53.222;7.446;2024-02-21T19:15:10;11.03;;;8.60;;
36185;SDS011;22228;53.222;7.446;2024-02-21T19:18:32;12.80;;;10.37;;
36185;SDS011;22228;53.222;7.446;2024-02-21T19:21:55;14.20;;;9.70;;
36185;SDS011;22228;53.222;7.446;2024-02-21T19:25:17;9.03;;;8.13;;
36185;SDS011;22228;53.222;7.446;2024-02-21T19:28:41;13.43;;;7.50;;
36185;SDS011;22228;53.222;7.446;2024-02-21T19:32:04;14.77;;;9.70;;
36185;SDS011;22228;53.222;7.446;2024-02-21T19:35:26;11.20;;;9.27;;
36185;SDS011;22228;53.222;7.446;2024-02-21T19:38:47;11.13;;;9.17;;
36185;SDS011;22228;53.222;7.446;2024-02-21T19:42:09;13.47;;;8.83;;
36185;SDS011;22228;53.222;7.446;2024-02-21T19:45:33;10.37;;;9.30;;
36185;SDS011;22228;53.222;7.446;2024-02-21T19:48:57;13.50;;;10.33;;
36185;SDS011;22228;53.222;7.446;2024-02-21T19:52:25;14.43;;;10.37;;
36185;SDS011;22228;53.222;7.446;2024-02-21T19:55:47;13.23;;;10.30;;
36185;SDS011;22228;53.222;7.446;2024-02-21T19:59:15;11.00;;;9.90;;
36185;SDS011;22228;53.222;7.446;2024-02-21T20:02:40;14.27;;;11.07;;
36185;SDS011;22228;53.222;7.446;2024-02-21T20:06:03;12.77;;;11.10;;
36185;SDS011;22228;53.222;7.446;2024-02-21T20:09:28;11.83;;;10.73;;
36185;SDS011;22228;53.222;7.446;2024-02-21T20:12:55;16.50;;;11.43;;
36185;SDS011;22228;53.222;7.446;2024-02-21T20:16:19;13.17;;;11.33;;
36185;SDS011;22228;53.222;7.446;2024-02-21T20:19:43;13.50;;;11.93;;
36185;SDS011;22228;53.222;7.446;2024-02-21T20:23:10;14.17;;;11.27;;
36185;SDS011;22228;53.222;7.446;2024-02-21T20:26:33;12.20;;;10.57;;
36185;SDS011;22228;53.222;7.446;2024-02-21T20:29:54;12.43;;;11.20;;
36185;SDS011;22228;53.222;7.446;2024-02-21T20:33:18;14.10;;;12.80;;
36185;SDS011;22228;53.222;7.446;2024-02-21T20:36:46;15.97;;;12.77;;
36185;SDS011;22228;53.222;7.446;2024-02-21T20:40:11;13.93;;;12.63;;
36185;SDS011;22228;53.222;7.446;2024-02-21T20:43:36;15.13;;;13.77;;
36185;SDS011;22228;53.222;7.446;2024-02-21T20:46:56;17.33;;;15.57;;
36185;SDS011;22228;53.222;7.446;2024-02-21T20:50:18;17.00;;;15.40;;
36185;SDS011;22228;53.222;7.446;2024-02-21T20:53:48;19.43;;;15.97;;
36185;SDS011;22228;53.222;7.446;2024-02-21T20:57:09;17.10;;;15.43;;
36185;SDS011;22228;53.222;7.446;2024-02-21T21:00:30;17.30;;;15.50;;
36185;SDS011;22228;53.222;7.446;2024-02-21T21:03:58;18.90;;;16.90;;
36185;SDS011;22228;53.222;7.446;2024-02-21T21:07:19;17.80;;;15.87;;
36185;SDS011;22228;53.222;7.446;2024-02-21T21:10:48;18.30;;;16.40;;
36185;SDS011;22228;53.222;7.446;2024-02-21T21:14:11;17.07;;;15.47;;
36185;SDS011;22228;53.222;7.446;2024-02-21T21:17:35;17.07;;;15.17;;
36185;SDS011;22228;53.222;7.446;2024-02-21T21:20:56;17.77;;;15.57;;
36185;SDS011;22228;53.222;7.446;2024-02-21T21:24:18;16.13;;;14.63;;
36185;SDS011;22228;53.222;7.446;2024-02-21T21:27:40;16.80;;;15.33;;
36185;SDS011;22228;53.222;7.446;2024-02-21T21:31:04;16.87;;;15.30;;
36185;SDS011;22228;53.222;7.446;2024-02-21T21:34:25;16.63;;;15.03;;
36185;SDS011;22228;53.222;7.446;2024-02-21T21:37:51;17.30;;;15.50;;
36185;SDS011;22228;53.222;7.446;2024-02-21T21:41:12;17.13;;;15.43;;
36185;SDS011;22228;53.222;7.446;2024-02-21T21:44:35;17.07;;;15.40;;
36185;SDS011;22228;53.222;7.446;2024-02-21T21:47:55;16.70;;;15.10;;
36185;SDS011;22228;53.222;7.446;2024-02-21T21:51:23;15.93;;;14.43;;
36185;SDS011;22228;53.222;7.446;2024-02-21T21:54:48;17.03;;;15.47;;
36185;SDS011;22228;53.222;7.446;2024-02-21T21:58:10;16.20;;;14.70;;
36185;SDS011;22228;53.222;7.446;2024-02-21T22:01:35;16.73;;;15.13;;
36185;SDS011;22228;53.222;7.446;2024-02-21T22:04:55;17.33;;;15.57;;
36185;SDS011;22228;53.222;7.446;2024-02-21T22:08:17;16.60;;;15.03;;
36185;SDS011;22228;53.222;7.446;2024-02-21T22:11:38;18.83;;;15.80;;
36185;SDS011;22228;53.222;7.446;2024-02-21T22:15:01;16.40;;;14.80;;
36185;SDS011;22228;53.222;7.446;2024-02-21T22:18:26;17.70;;;15.87;;
36185;SDS011;22228;53.222;7.446;2024-02-21T22:21:47;16.40;;;14.90;;
36185;SDS011;22228;53.222;7.446;2024-02-21T22:25:09;17.40;;;15.90;;
36185;SDS011;22228;53.222;7.446;2024-02-21T22:28:30;17.57;;;15.90;;
36185;SDS011;22228;53.222;7.446;2024-02-21T22:31:56;17.43;;;15.83;;
36185;SDS011;22228;53.222;7.446;2024-02-21T22:35:18;18.20;;;16.40;;
36185;SDS011;22228;53.222;7.446;2024-02-21T22:38:39;18.37;;;16.57;;
36185;SDS011;22228;53.222;7.446;2024-02-21T22:42:00;17.70;;;16.03;;